createdAt,value
2022-07-25T00:02:16.341Z,100.00
2022-07-25T00:04:46.722Z,100.00
2022-07-25T00:07:15.368Z,100.00
2022-07-25T00:09:44.159Z,100.00
2022-07-25T00:12:14.494Z,100.00
2022-07-25T00:14:42.864Z,100.00
2022-07-25T00:17:11.183Z,100.00
2022-07-25T00:19:39.643Z,100.00
2022-07-25T00:22:09.362Z,100.00
2022-07-25T00:24:37.632Z,100.00
2022-07-25T00:27:06.319Z,100.00
2022-07-25T00:29:34.690Z,100.00
2022-07-25T00:32:07.104Z,100.00
2022-07-25T00:34:35.529Z,100.00
2022-07-25T00:37:03.865Z,100.00
2022-07-25T00:39:35.760Z,100.00
2022-07-25T00:42:05.218Z,100.00
2022-07-25T00:44:34.436Z,100.00
2022-07-25T00:47:02.894Z,100.00
2022-07-25T00:49:31.281Z,100.00
2022-07-25T00:51:59.711Z,100.00
2022-07-25T00:54:28.041Z,100.00
2022-07-25T00:56:57.755Z,100.00
2022-07-25T00:59:26.065Z,100.00
2022-07-25T01:01:54.784Z,100.00
2022-07-25T01:04:23.205Z,100.00
2022-07-25T01:06:51.541Z,100.00
2022-07-25T01:09:20.387Z,100.00
2022-07-25T01:11:48.765Z,100.00
2022-07-25T01:14:18.466Z,100.00
2022-07-25T01:16:46.855Z,100.00
2022-07-25T01:19:15.182Z,100.00
2022-07-25T01:21:45.011Z,100.00
2022-07-25T01:24:13.431Z,100.00
2022-07-25T01:26:41.959Z,100.00
2022-07-25T01:29:10.356Z,100.00
2022-07-25T01:31:38.736Z,100.00
2022-07-25T01:34:07.344Z,100.00
2022-07-25T01:36:36.007Z,100.00
2022-07-25T01:39:05.835Z,100.00
2022-07-25T01:41:34.192Z,100.00
2022-07-25T01:44:02.743Z,100.00
2022-07-25T01:46:31.322Z,100.00
2022-07-25T01:48:59.752Z,100.00
2022-07-25T01:51:28.134Z,100.00
2022-07-25T01:53:56.436Z,100.00
2022-07-25T01:56:27.269Z,100.00
2022-07-25T01:58:58.700Z,100.00
2022-07-25T02:01:27.470Z,100.00
2022-07-25T02:03:55.838Z,100.00
2022-07-25T02:06:24.335Z,100.00
2022-07-25T02:08:52.701Z,100.00
2022-07-25T02:11:21.185Z,100.00
2022-07-25T02:13:50.902Z,100.00
2022-07-25T02:16:19.359Z,100.00
2022-07-25T02:18:57.541Z,100.00
2022-07-25T02:21:25.978Z,100.00
2022-07-25T02:23:54.321Z,100.00
2022-07-25T02:26:22.594Z,100.00
2022-07-25T02:28:52.503Z,100.00
2022-07-25T02:31:20.844Z,100.00
2022-07-25T02:33:49.154Z,100.00
2022-07-25T02:36:17.803Z,100.00
2022-07-25T02:38:46.270Z,100.00
2022-07-25T02:41:14.568Z,100.00
2022-07-25T02:43:42.913Z,100.00
2022-07-25T02:46:12.722Z,100.00
2022-07-25T02:48:41.355Z,100.00
2022-07-25T02:51:09.709Z,100.00
2022-07-25T02:53:56.762Z,100.00
2022-07-25T02:56:28.959Z,100.00
2022-07-25T02:58:58.693Z,100.00
2022-07-25T03:01:28.574Z,100.00
2022-07-25T03:03:57.144Z,100.00
2022-07-25T03:06:25.562Z,100.00
2022-07-25T03:08:53.872Z,100.00
2022-07-25T03:11:22.728Z,100.00
2022-07-25T03:13:51.134Z,100.00
2022-07-25T03:16:19.563Z,100.00
2022-07-25T03:18:49.275Z,100.00
2022-07-25T03:21:17.624Z,100.00
2022-07-25T03:23:50.434Z,100.00
2022-07-25T03:26:20.795Z,100.00
2022-07-25T03:28:49.132Z,100.00
2022-07-25T03:31:17.600Z,100.00
2022-07-25T03:33:46.075Z,100.00
2022-07-25T03:36:15.776Z,100.00
2022-07-25T03:38:44.233Z,100.00
2022-07-25T03:41:13.499Z,100.00
2022-07-25T03:43:42.000Z,100.00
2022-07-25T03:46:10.353Z,100.00
2022-07-25T03:48:38.930Z,100.00
2022-07-25T03:51:07.591Z,100.00
2022-07-25T03:53:57.561Z,100.00
2022-07-25T03:56:25.881Z,100.00
2022-07-25T03:58:54.237Z,100.00
2022-07-25T04:01:22.674Z,100.00
2022-07-25T04:03:51.050Z,100.00
2022-07-25T04:06:19.756Z,100.00
2022-07-25T04:08:49.361Z,100.00
2022-07-25T04:11:17.880Z,100.00
2022-07-25T04:13:46.274Z,100.00
2022-07-25T04:16:17.397Z,100.00
2022-07-25T04:18:51.130Z,100.00
2022-07-25T04:21:20.158Z,100.00
2022-07-25T04:23:50.509Z,100.00
2022-07-25T04:26:18.736Z,100.00
2022-07-25T04:28:46.955Z,100.00
2022-07-25T04:31:15.278Z,100.00
2022-07-25T04:33:44.202Z,100.00
2022-07-25T04:36:12.535Z,100.00
2022-07-25T04:38:40.883Z,100.00
2022-07-25T04:41:10.602Z,100.00
2022-07-25T04:43:39.133Z,100.00
2022-07-25T04:46:07.784Z,100.00
2022-07-25T04:48:36.240Z,100.00
2022-07-25T04:51:04.556Z,100.00
2022-07-25T04:53:34.323Z,100.00
2022-07-25T04:56:02.754Z,100.00
2022-07-25T04:58:32.499Z,100.00
2022-07-25T05:01:00.899Z,100.00
2022-07-25T05:03:29.346Z,100.00
2022-07-25T05:05:57.676Z,100.00
2022-07-25T05:08:25.963Z,100.00
2022-07-25T05:10:54.252Z,100.00
2022-07-25T05:13:22.796Z,100.00
2022-07-25T05:15:52.644Z,100.00
2022-07-25T05:18:21.574Z,100.00
2022-07-25T05:20:49.889Z,100.00
2022-07-25T05:23:18.204Z,100.00
2022-07-25T05:25:46.675Z,100.00
2022-07-25T05:28:15.869Z,100.00
2022-07-25T05:30:44.457Z,100.00
2022-07-25T05:33:14.122Z,100.00
2022-07-25T05:35:42.436Z,100.00
2022-07-25T05:38:10.917Z,100.00
2022-07-25T05:40:39.494Z,100.00
2022-07-25T05:43:07.828Z,100.00
2022-07-25T05:45:36.091Z,100.00
2022-07-25T05:48:04.403Z,100.00
2022-07-25T05:50:34.108Z,100.00
2022-07-25T05:53:02.295Z,100.00
2022-07-25T05:55:30.503Z,100.00
2022-07-25T05:57:58.793Z,100.00
2022-07-25T06:00:27.364Z,100.00
2022-07-25T06:02:59.359Z,100.00
2022-07-25T06:05:27.779Z,100.00
2022-07-25T06:07:57.470Z,100.00
2022-07-25T06:10:25.909Z,100.00
2022-07-25T06:12:54.338Z,100.00
2022-07-25T06:15:27.053Z,100.00
2022-07-25T06:17:55.938Z,100.00
2022-07-25T06:20:24.419Z,100.00
2022-07-25T06:22:53.793Z,100.00
2022-07-25T06:25:23.652Z,100.00
2022-07-25T06:27:51.914Z,100.00
2022-07-25T06:30:20.766Z,100.00
2022-07-25T06:32:49.414Z,100.00
2022-07-25T06:35:18.017Z,100.00
2022-07-25T06:37:46.430Z,100.00
2022-07-25T06:40:14.960Z,100.00
2022-07-25T06:42:45.871Z,100.00
2022-07-25T06:45:15.410Z,100.00
2022-07-25T06:47:44.484Z,100.00
2022-07-25T06:50:15.432Z,100.00
2022-07-25T06:52:44.195Z,100.00
2022-07-25T06:55:13.793Z,100.00
2022-07-25T06:57:44.212Z,100.00
2022-07-25T07:00:14.173Z,100.00
2022-07-25T07:02:50.178Z,100.00
2022-07-25T07:05:18.618Z,100.00
2022-07-25T07:07:47.983Z,100.00
2022-07-25T07:10:17.158Z,100.00
2022-07-25T07:12:46.880Z,100.00
2022-07-25T07:15:15.752Z,100.00
2022-07-25T07:17:44.513Z,100.00
2022-07-25T07:20:13.438Z,100.00
2022-07-25T07:22:46.641Z,100.00
2022-07-25T07:25:15.785Z,100.00
2022-07-25T07:27:45.945Z,100.00
2022-07-25T07:30:14.827Z,100.00
2022-07-25T07:32:43.375Z,100.00
2022-07-25T07:35:12.320Z,100.00
2022-07-25T07:37:43.586Z,100.00
2022-07-25T07:40:17.500Z,100.00
2022-07-25T07:42:49.364Z,100.00
2022-07-25T07:45:20.241Z,100.00
2022-07-25T07:47:49.430Z,100.00
2022-07-25T07:50:19.154Z,100.00
2022-07-25T07:55:45.444Z,100.00
2022-07-25T07:58:16.868Z,100.00
2022-07-25T08:00:47.694Z,100.00
2022-07-25T08:03:19.047Z,100.00
2022-07-25T08:05:49.138Z,100.00
2022-07-25T08:08:17.590Z,100.00
2022-07-25T08:10:48.488Z,100.00
2022-07-25T08:13:19.225Z,100.00
2022-07-25T08:15:50.225Z,100.00
2022-07-25T08:18:19.189Z,100.00
2022-07-25T08:20:47.537Z,100.00
2022-07-25T08:23:16.280Z,100.00
2022-07-25T08:25:45.030Z,100.00
2022-07-25T08:28:13.934Z,100.00
2022-07-25T08:30:43.996Z,100.00
2022-07-25T08:33:13.315Z,100.00
2022-07-25T08:35:42.744Z,100.00
2022-07-25T08:38:11.799Z,100.00
2022-07-25T08:40:40.335Z,100.00
2022-07-25T08:43:12.268Z,96.88
2022-07-25T08:45:46.114Z,93.58
2022-07-25T08:48:15.008Z,90.99
2022-07-25T08:50:43.492Z,82.04
2022-07-25T08:56:00.095Z,79.21
2022-07-25T08:58:28.716Z,79.32
2022-07-25T09:00:58.539Z,78.00
2022-07-25T09:03:28.003Z,89.75
2022-07-25T09:05:56.373Z,86.07
2022-07-25T09:08:24.714Z,76.92
2022-07-25T09:10:53.949Z,75.04
2022-07-25T09:13:23.668Z,68.60
2022-07-25T09:15:53.917Z,68.32
2022-07-25T09:18:26.099Z,69.70
2022-07-25T09:20:58.812Z,67.62
2022-07-25T09:23:32.171Z,65.74
2022-07-25T09:26:04.631Z,74.25
2022-07-25T09:28:33.441Z,66.57
2022-07-25T09:31:03.045Z,66.06
2022-07-25T09:33:33.229Z,70.85
2022-07-25T09:36:11.479Z,58.70
2022-07-25T09:38:39.825Z,62.35
2022-07-25T09:41:09.301Z,59.93
2022-07-25T09:43:38.562Z,59.73
2022-07-25T09:46:07.304Z,62.39
2022-07-25T09:48:38.195Z,64.08
2022-07-25T09:51:07.468Z,62.55
2022-07-25T09:53:37.246Z,65.75
2022-07-25T09:56:05.963Z,63.38
2022-07-25T09:58:34.364Z,65.13
2022-07-25T10:01:05.042Z,69.27
2022-07-25T10:03:46.573Z,65.67
2022-07-25T10:06:21.391Z,67.10
2022-07-25T10:08:50.464Z,65.56
2022-07-25T10:11:23.089Z,61.66
2022-07-25T10:13:51.960Z,61.07
2022-07-25T10:16:22.046Z,62.75
2022-07-25T10:18:53.727Z,65.14
2022-07-25T10:21:27.637Z,61.21
2022-07-25T10:24:01.330Z,62.56
2022-07-25T10:26:30.222Z,58.47
2022-07-25T10:28:59.059Z,58.97
2022-07-25T10:31:34.781Z,53.94
2022-07-25T10:34:06.353Z,53.98
2022-07-25T10:36:46.028Z,50.89
2022-07-25T10:39:17.099Z,53.54
2022-07-25T10:41:50.833Z,55.23
2022-07-25T10:44:19.124Z,53.32
2022-07-25T10:46:48.552Z,53.03
2022-07-25T10:49:29.262Z,45.95
2022-07-25T10:52:03.173Z,50.26
2022-07-25T10:57:21.042Z,49.56
2022-07-25T10:59:49.330Z,50.22
2022-07-25T11:02:19.182Z,49.72
2022-07-25T11:05:00.155Z,51.00
2022-07-25T11:07:28.953Z,47.85
2022-07-25T11:09:58.305Z,49.20
2022-07-25T11:12:26.892Z,47.77
2022-07-25T11:14:58.759Z,45.09
2022-07-25T11:17:27.159Z,42.87
2022-07-25T11:19:58.253Z,46.87
2022-07-25T11:22:27.886Z,46.02
2022-07-25T11:24:57.182Z,43.19
2022-07-25T11:27:27.221Z,42.55
2022-07-25T11:30:06.236Z,39.17
2022-07-25T11:32:39.911Z,40.47
2022-07-25T11:35:11.021Z,41.95
2022-07-25T11:37:40.954Z,41.28
2022-07-25T11:40:10.616Z,40.41
2022-07-25T11:45:29.458Z,38.62
2022-07-25T11:48:04.902Z,38.19
2022-07-25T11:50:35.685Z,39.09
2022-07-25T11:53:05.941Z,37.49
2022-07-25T11:55:36.876Z,36.29
2022-07-25T11:58:06.517Z,37.16
2022-07-25T12:00:35.265Z,33.93
2022-07-25T12:03:08.286Z,35.28
2022-07-25T12:05:38.298Z,37.22
2022-07-25T12:08:11.041Z,35.58
2022-07-25T12:10:40.314Z,35.32
2022-07-25T12:13:10.202Z,35.42
2022-07-25T12:15:39.874Z,36.01
2022-07-25T12:18:09.436Z,34.28
2022-07-25T12:20:40.470Z,35.87
2022-07-25T12:23:11.129Z,35.68
2022-07-25T12:25:40.923Z,36.71
2022-07-25T12:28:10.756Z,35.44
2022-07-25T12:30:39.941Z,33.90
2022-07-25T12:33:08.942Z,34.85
2022-07-25T12:35:38.933Z,35.31
2022-07-25T12:38:07.265Z,34.17
2022-07-25T12:40:35.708Z,34.62
2022-07-25T12:43:05.004Z,34.44
2022-07-25T12:45:33.423Z,35.56
2022-07-25T12:48:02.033Z,34.39
2022-07-25T12:50:30.428Z,34.21
2022-07-25T12:53:00.119Z,32.88
2022-07-25T12:55:28.833Z,33.75
2022-07-25T12:57:57.350Z,33.72
2022-07-25T13:00:26.145Z,33.91
2022-07-25T13:02:55.783Z,33.25
2022-07-25T13:05:25.553Z,34.90
2022-07-25T13:07:54.150Z,33.68
2022-07-25T13:10:23.866Z,33.75
2022-07-25T13:12:52.335Z,32.47
2022-07-25T13:15:23.314Z,33.06
2022-07-25T13:17:51.625Z,33.65
2022-07-25T13:20:19.934Z,33.27
2022-07-25T13:22:48.266Z,32.11
2022-07-25T13:25:16.730Z,32.07
2022-07-25T13:27:46.554Z,31.99
2022-07-25T13:30:15.483Z,32.36
2022-07-25T13:32:43.970Z,31.95
2022-07-25T13:35:12.294Z,32.01
2022-07-25T13:37:40.825Z,33.13
2022-07-25T13:40:09.853Z,33.01
2022-07-25T13:42:38.287Z,32.18
2022-07-25T13:45:09.788Z,30.72
2022-07-25T13:47:38.312Z,30.09
2022-07-25T13:50:08.245Z,31.84
2022-07-25T13:52:37.762Z,30.34
2022-07-25T13:55:06.997Z,29.81
2022-07-25T13:57:35.358Z,30.90
2022-07-25T14:00:04.298Z,30.58
2022-07-25T14:02:34.007Z,31.29
2022-07-25T14:05:04.334Z,30.65
2022-07-25T14:07:32.811Z,30.04
2022-07-25T14:10:01.206Z,30.05
2022-07-25T14:12:29.535Z,30.54
2022-07-25T14:14:58.074Z,30.68
2022-07-25T14:17:30.146Z,31.33
2022-07-25T14:20:00.355Z,31.06
2022-07-25T14:22:28.677Z,31.09
2022-07-25T14:24:57.111Z,31.63
2022-07-25T14:27:25.577Z,30.21
2022-07-25T14:29:54.227Z,28.86
2022-07-25T14:32:22.753Z,29.06
2022-07-25T14:34:52.517Z,29.16
2022-07-25T14:37:23.564Z,30.05
2022-07-25T14:39:52.207Z,29.72
2022-07-25T14:42:20.582Z,30.06
2022-07-25T14:44:48.905Z,30.10
2022-07-25T14:47:17.299Z,29.03
2022-07-25T14:49:45.687Z,28.85
2022-07-25T14:52:14.769Z,29.72
2022-07-25T14:54:44.486Z,29.66
2022-07-25T14:57:12.843Z,29.82
2022-07-25T14:59:41.201Z,30.08
2022-07-25T15:02:11.058Z,29.66
2022-07-25T15:04:39.405Z,29.85
2022-07-25T15:07:07.803Z,28.38
2022-07-25T15:09:36.284Z,29.38
2022-07-25T15:12:06.561Z,28.55
2022-07-25T15:14:35.752Z,27.92
2022-07-25T15:17:04.159Z,28.09
2022-07-25T15:19:32.584Z,28.07
2022-07-25T15:22:01.018Z,28.29
2022-07-25T15:24:29.527Z,28.92
2022-07-25T15:26:58.329Z,28.48
2022-07-25T15:29:28.631Z,28.75
2022-07-25T15:31:57.100Z,29.63
2022-07-25T15:34:25.567Z,28.59
2022-07-25T15:36:55.507Z,27.95
2022-07-25T15:39:24.486Z,27.43
2022-07-25T15:41:52.996Z,27.22
2022-07-25T15:44:21.432Z,27.48
2022-07-25T15:46:51.252Z,27.52
2022-07-25T15:49:19.870Z,27.05
2022-07-25T15:51:48.291Z,27.63
2022-07-25T15:54:16.744Z,27.39
2022-07-25T15:56:45.141Z,27.08
2022-07-25T15:59:14.698Z,27.48
2022-07-25T16:01:43.592Z,27.93
2022-07-25T16:04:13.467Z,28.07
2022-07-25T16:06:42.038Z,28.37
2022-07-25T16:09:12.382Z,28.19
2022-07-25T16:11:40.885Z,28.87
2022-07-25T16:14:09.982Z,28.49
2022-07-25T16:16:38.612Z,29.25
2022-07-25T16:19:09.729Z,29.15
2022-07-25T16:21:39.975Z,28.78
2022-07-25T16:24:09.479Z,29.69
2022-07-25T16:26:38.327Z,29.38
2022-07-25T16:29:07.256Z,29.11
2022-07-25T16:31:36.025Z,29.27
2022-07-25T16:34:04.608Z,28.97
2022-07-25T16:36:33.271Z,30.10
2022-07-25T16:39:03.619Z,30.20
2022-07-25T16:41:32.185Z,29.79
2022-07-25T16:44:00.634Z,29.76
2022-07-25T16:46:29.077Z,29.78
2022-07-25T16:48:57.599Z,29.94
2022-07-25T16:51:26.104Z,30.00
2022-07-25T16:53:54.616Z,30.67
2022-07-25T16:56:24.499Z,30.74
2022-07-25T16:58:53.869Z,30.82
2022-07-25T17:01:22.441Z,31.08
2022-07-25T17:03:50.993Z,30.91
2022-07-25T17:06:19.878Z,31.07
2022-07-25T17:08:48.369Z,31.11
2022-07-25T17:11:16.827Z,31.24
2022-07-25T17:13:46.710Z,30.87
2022-07-25T17:16:15.238Z,31.34
2022-07-25T17:18:43.697Z,31.40
2022-07-25T17:21:15.266Z,31.32
2022-07-25T17:23:43.648Z,31.30
2022-07-25T17:26:12.189Z,31.29
2022-07-25T17:28:41.448Z,31.69
2022-07-25T17:31:11.054Z,31.99
2022-07-25T17:33:39.154Z,32.55
2022-07-25T17:36:07.895Z,32.97
2022-07-25T17:38:36.454Z,33.51
2022-07-25T17:41:05.556Z,33.66
2022-07-25T17:43:33.998Z,33.63
2022-07-25T17:46:02.469Z,35.61
2022-07-25T17:48:32.427Z,37.47
2022-07-25T17:51:00.858Z,39.06
2022-07-25T17:53:29.224Z,39.65
2022-07-25T17:55:57.632Z,40.55
2022-07-25T17:58:26.151Z,41.26
2022-07-25T18:00:59.564Z,42.29
2022-07-25T18:03:29.684Z,43.63
2022-07-25T18:06:00.176Z,44.85
2022-07-25T18:08:30.542Z,47.40
2022-07-25T18:10:59.027Z,49.22
2022-07-25T18:13:27.701Z,54.44
2022-07-25T18:15:56.291Z,58.49
2022-07-25T18:18:24.803Z,63.36
2022-07-25T18:20:53.297Z,66.02
2022-07-25T18:23:24.282Z,67.61
2022-07-25T18:25:53.576Z,70.21
2022-07-25T18:28:22.292Z,71.70
2022-07-25T18:30:55.048Z,72.35
2022-07-25T18:33:23.290Z,72.74
2022-07-25T18:35:52.207Z,76.14
2022-07-25T18:38:22.357Z,75.60
2022-07-25T18:41:01.752Z,76.51
2022-07-25T18:43:39.331Z,76.74
2022-07-25T18:46:10.192Z,80.21
2022-07-25T18:48:38.839Z,82.62
2022-07-25T18:51:07.638Z,82.86
2022-07-25T18:53:37.952Z,82.78
2022-07-25T18:56:07.103Z,81.38
2022-07-25T18:58:36.311Z,80.47
2022-07-25T19:01:04.987Z,85.39
2022-07-25T19:03:34.927Z,86.52
2022-07-25T19:06:03.841Z,99.38
2022-07-25T19:08:33.500Z,100.00
2022-07-25T19:11:03.245Z,98.58
2022-07-25T19:13:48.699Z,99.38
2022-07-25T19:16:17.744Z,97.55
2022-07-25T19:18:46.301Z,100.00
2022-07-25T19:21:15.311Z,95.74
2022-07-25T19:23:49.799Z,100.00
2022-07-25T19:26:21.136Z,100.00
2022-07-25T19:28:50.107Z,100.00
2022-07-25T19:31:18.658Z,100.00
2022-07-25T19:33:47.324Z,100.00
2022-07-25T19:36:15.769Z,100.00
2022-07-25T19:38:44.198Z,100.00
2022-07-25T19:41:12.601Z,100.00
2022-07-25T19:43:42.524Z,100.00
2022-07-25T19:46:10.980Z,100.00
2022-07-25T19:48:39.632Z,100.00
2022-07-25T19:51:08.120Z,100.00
2022-07-25T19:53:36.621Z,100.00
2022-07-25T19:56:06.695Z,100.00
2022-07-25T19:58:38.642Z,100.00
2022-07-25T20:01:08.923Z,100.00
2022-07-25T20:03:37.358Z,100.00
2022-07-25T20:06:08.333Z,100.00
2022-07-25T20:08:39.540Z,100.00
2022-07-25T20:11:08.321Z,100.00
2022-07-25T20:13:36.951Z,100.00
2022-07-25T20:16:06.122Z,100.00
2022-07-25T20:18:35.970Z,100.00
2022-07-25T20:21:04.647Z,100.00
2022-07-25T20:23:33.279Z,100.00
2022-07-25T20:26:02.438Z,100.00
2022-07-25T20:28:31.164Z,100.00
2022-07-25T20:31:01.690Z,100.00
2022-07-25T20:33:30.311Z,100.00
2022-07-25T20:36:00.472Z,100.00
2022-07-25T20:38:31.190Z,100.00
2022-07-25T20:40:59.911Z,100.00
2022-07-25T20:43:28.655Z,100.00
2022-07-25T20:45:57.501Z,100.00
2022-07-25T20:48:26.128Z,100.00
2022-07-25T20:50:54.590Z,100.00
2022-07-25T20:53:24.374Z,100.00
2022-07-25T20:55:52.851Z,100.00
2022-07-25T20:58:21.348Z,100.00
2022-07-25T21:00:49.864Z,100.00
2022-07-25T21:03:18.392Z,100.00
2022-07-25T21:05:46.893Z,100.00
2022-07-25T21:08:15.453Z,100.00
2022-07-25T21:10:45.265Z,100.00
2022-07-25T21:13:13.659Z,100.00
2022-07-25T21:15:46.812Z,100.00
2022-07-25T21:18:15.142Z,100.00
2022-07-25T21:20:43.735Z,100.00
2022-07-25T21:23:12.143Z,100.00
2022-07-25T21:25:40.615Z,100.00
2022-07-25T21:28:10.380Z,100.00
2022-07-25T21:30:41.139Z,100.00
2022-07-25T21:33:14.270Z,100.00
2022-07-25T21:35:49.088Z,100.00
2022-07-25T21:38:26.839Z,100.00
2022-07-25T21:40:56.887Z,100.00
2022-07-25T21:43:26.652Z,100.00
2022-07-25T21:45:55.074Z,100.00
2022-07-25T21:48:43.952Z,100.00
2022-07-25T21:51:18.688Z,100.00
2022-07-25T21:53:48.629Z,100.00
2022-07-25T21:56:17.106Z,100.00
2022-07-25T21:58:46.895Z,100.00
2022-07-25T22:01:15.489Z,100.00
2022-07-25T22:03:43.982Z,100.00
2022-07-25T22:06:12.602Z,100.00
2022-07-25T22:09:17.720Z,100.00
2022-07-25T22:15:35.193Z,100.00
2022-07-25T22:21:51.077Z,100.00
2022-07-25T22:24:19.489Z,100.00
2022-07-25T22:26:48.048Z,100.00
2022-07-25T22:29:16.469Z,100.00
2022-07-25T22:31:46.433Z,100.00
2022-07-25T22:34:15.003Z,100.00
2022-07-25T22:36:43.832Z,100.00
2022-07-25T22:39:12.750Z,100.00
2022-07-25T22:41:41.267Z,100.00
2022-07-25T22:44:09.746Z,100.00
2022-07-25T22:46:38.199Z,100.00
2022-07-25T22:49:08.570Z,100.00
2022-07-25T22:51:37.332Z,100.00
2022-07-25T22:54:06.112Z,100.00
2022-07-25T22:56:34.442Z,100.00
2022-07-25T22:59:02.782Z,100.00
2022-07-25T23:01:31.293Z,100.00
2022-07-25T23:03:59.776Z,100.00
2022-07-25T23:06:29.546Z,100.00
2022-07-25T23:08:57.920Z,100.00
2022-07-25T23:11:27.186Z,100.00
2022-07-25T23:17:43.093Z,100.00
2022-07-25T23:20:12.552Z,100.00
2022-07-25T23:22:42.479Z,100.00
2022-07-25T23:25:14.052Z,100.00
2022-07-25T23:27:42.415Z,100.00
2022-07-25T23:30:11.695Z,100.00
2022-07-25T23:32:40.392Z,100.00
2022-07-25T23:35:09.834Z,100.00
2022-07-25T23:37:38.272Z,100.00
2022-07-25T23:40:09.279Z,100.00
2022-07-25T23:42:37.659Z,100.00
2022-07-25T23:45:07.425Z,100.00
2022-07-25T23:47:39.530Z,100.00
2022-07-25T23:50:10.774Z,100.00
2022-07-25T23:52:39.217Z,100.00
2022-07-25T23:55:09.933Z,100.00
2022-07-25T23:57:38.311Z,100.00
